Time;durP1;ratioP1;P1;durP2;ratioP2;P2;SDS_P1;SDS_P2;PMS_P1;PMS_P2;Temp;Humidity;BMP_temperature;BMP_pressure;BME280_temperature;BME280_humidity;BME280_pressure;Samples;Min_cycle;Max_cycle;Signal;HPM_P1;HPM_P2
2023/11/21 05:02:10;;;;;;;1.77;1.23;;;7.40;97.30;;;;;;5134192;23;20507;-88
2023/11/21 05:04:35;;;;;;;5.03;1.60;;;7.50;97.30;;;;;;4893694;29;20445;-87
2023/11/21 05:07:01;;;;;;;1.13;1.03;;;7.50;97.30;;;;;;4884972;29;20200;-88
2023/11/21 05:09:28;;;;;;;2.17;2.00;;;7.50;97.30;;;;;;4878661;29;20189;-88
2023/11/21 05:11:54;;;;;;;2.03;1.23;;;7.50;97.30;;;;;;4884687;29;20222;-87
2023/11/21 05:14:19;;;;;;;2.20;1.67;;;7.50;97.30;;;;;;4886831;29;20429;-87
2023/11/21 05:16:45;;;;;;;1.33;1.23;;;7.50;97.30;;;;;;4887947;29;20848;-87
2023/11/21 05:19:13;;;;;;;1.27;1.17;;;7.50;97.30;;;;;;4888025;29;20694;-87
2023/11/21 05:21:38;;;;;;;3.13;1.20;;;7.50;97.30;;;;;;4890676;29;20446;-87
2023/11/21 05:24:05;;;;;;;1.90;1.40;;;7.50;97.30;;;;;;4889188;29;20432;-87
2023/11/21 05:26:30;;;;;;;1.97;1.87;;;7.50;97.30;;;;;;4890247;29;20249;-87
2023/11/21 05:28:56;;;;;;;1.13;1.03;;;7.50;97.30;;;;;;4890120;29;20441;-87
2023/11/21 05:31:22;;;;;;;1.47;1.37;;;7.50;97.30;;;;;;4886171;29;20213;-89
2023/11/21 05:33:47;;;;;;;4.50;2.13;;;7.50;97.30;;;;;;4895403;29;20201;-90
2023/11/21 05:36:13;;;;;;;2.30;1.40;;;7.50;97.30;;;;;;4890388;29;20307;-86
2023/11/21 05:38:38;;;;;;;1.63;1.53;;;7.50;97.30;;;;;;4887177;29;20691;-86
2023/11/21 05:41:04;;;;;;;1.10;1.00;;;7.50;97.30;;;;;;4889438;29;20204;-87
2023/11/21 05:43:32;;;;;;;4.07;1.90;;;7.50;97.30;;;;;;4903389;29;20186;-87
2023/11/21 05:45:57;;;;;;;3.07;1.97;;;7.50;97.30;;;;;;4889291;29;20188;-87
2023/11/21 05:48:23;;;;;;;2.20;1.40;;;7.50;97.30;;;;;;4887178;29;20443;-86
2023/11/21 05:50:49;;;;;;;1.27;1.17;;;7.50;97.30;;;;;;4894232;29;20213;-87
2023/11/21 05:53:15;;;;;;;1.10;1.00;;;7.50;97.30;;;;;;4894337;29;20400;-87
2023/11/21 05:55:41;;;;;;;1.27;1.17;;;7.40;97.30;;;;;;4889182;29;20518;-87
2023/11/21 05:58:07;;;;;;;1.43;1.33;;;7.40;97.30;;;;;;4889170;29;20433;-86
2023/11/21 06:00:33;;;;;;;4.50;2.90;;;7.40;97.30;;;;;;4887488;29;20478;-85
2023/11/21 06:02:58;;;;;;;2.23;1.53;;;7.40;97.30;;;;;;4897380;29;20192;-87
2023/11/21 06:05:25;;;;;;;1.17;1.07;;;7.40;97.30;;;;;;4907711;29;20784;-87
2023/11/21 06:07:52;;;;;;;7.73;3.33;;;7.40;97.30;;;;;;4893367;29;20193;-86
2023/11/21 06:10:19;;;;;;;1.87;1.77;;;7.50;97.30;;;;;;4892360;29;20838;-87
2023/11/21 06:12:45;;;;;;;2.80;1.77;;;7.50;97.30;;;;;;4899544;29;20449;-86
2023/11/21 06:15:14;;;;;;;2.83;2.17;;;7.50;97.30;;;;;;4893348;29;20439;-87
2023/11/21 06:17:41;;;;;;;1.60;1.53;;;7.50;97.30;;;;;;4907504;29;20189;-87
2023/11/21 06:20:09;;;;;;;2.47;2.27;;;7.50;97.30;;;;;;4890572;29;20465;-89
2023/11/21 06:22:39;;;;;;;2.60;1.33;;;7.50;97.30;;;;;;4893291;29;20454;-87
2023/11/21 06:25:05;;;;;;;1.20;1.10;;;7.50;97.30;;;;;;4896196;29;20429;-87
2023/11/21 06:27:37;;;;;;;1.50;1.40;;;7.50;97.30;;;;;;4893717;29;20508;-86
2023/11/21 06:30:03;;;;;;;1.67;1.60;;;7.50;97.30;;;;;;4910409;29;20429;-89
2023/11/21 06:32:29;;;;;;;3.17;2.20;;;7.40;97.30;;;;;;4901915;29;21676;-87
2023/11/21 06:34:55;;;;;;;1.53;1.43;;;7.40;97.30;;;;;;4908703;29;20457;-87
2023/11/21 06:37:23;;;;;;;8.33;2.50;;;7.40;97.30;;;;;;4898181;29;20598;-86
2023/11/21 06:39:52;;;;;;;2.70;2.53;;;7.40;97.30;;;;;;4897219;29;20536;-87
2023/11/21 06:42:19;;;;;;;1.17;1.07;;;7.40;97.30;;;;;;4900486;29;20449;-86
2023/11/21 06:44:45;;;;;;;2.17;2.00;;;7.50;97.30;;;;;;4912088;29;20464;-86
2023/11/21 06:47:10;;;;;;;2.00;1.83;;;7.50;97.30;;;;;;4902802;29;20439;-86
2023/11/21 06:49:36;;;;;;;1.80;1.70;;;7.50;97.30;;;;;;4895857;29;20461;-87
2023/11/21 06:52:02;;;;;;;1.70;1.57;;;7.50;97.30;;;;;;4894804;29;20217;-87
2023/11/21 06:54:29;;;;;;;2.20;1.80;;;7.50;97.30;;;;;;4908255;29;20197;-86
2023/11/21 06:56:56;;;;;;;1.57;1.47;;;7.50;97.30;;;;;;4909488;29;20433;-87
2023/11/21 06:59:22;;;;;;;2.90;2.17;;;7.50;97.30;;;;;;4901142;29;20464;-87
2023/11/21 07:01:47;;;;;;;1.70;1.60;;;7.60;97.30;;;;;;4896619;29;20478;-85
2023/11/21 07:04:13;;;;;;;4.10;3.07;;;7.60;97.30;;;;;;4884781;29;20298;-86
2023/11/21 07:06:38;;;;;;;2.00;1.90;;;7.60;97.30;;;;;;4889018;29;20205;-87
2023/11/21 07:09:04;;;;;;;13.47;2.87;;;7.60;97.30;;;;;;4890950;29;20216;-86
2023/11/21 07:11:29;;;;;;;2.23;2.07;;;7.60;97.30;;;;;;4893033;29;20241;-86
2023/11/21 07:13:55;;;;;;;1.43;1.33;;;7.60;97.30;;;;;;4886171;29;20635;-86
2023/11/21 07:16:22;;;;;;;4.67;2.10;;;7.60;97.30;;;;;;4886956;29;20200;-85
2023/11/21 07:18:49;;;;;;;2.03;1.90;;;7.60;97.30;;;;;;4879296;29;20206;-86
2023/11/21 07:21:15;;;;;;;5.63;3.83;;;7.60;97.30;;;;;;4886817;29;20453;-85
2023/11/21 07:23:41;;;;;;;4.73;3.23;;;7.60;97.30;;;;;;4887149;29;20491;-86
2023/11/21 07:26:09;;;;;;;2.87;2.67;;;7.60;97.30;;;;;;4886608;29;20426;-85
2023/11/21 07:28:35;;;;;;;3.10;2.37;;;7.60;97.30;;;;;;4889125;29;20192;-85
2023/11/21 07:31:01;;;;;;;3.67;2.23;;;7.70;97.30;;;;;;4886177;29;20449;-86
2023/11/21 07:33:27;;;;;;;7.83;4.60;;;7.70;97.30;;;;;;4888491;29;21015;-85
2023/11/21 07:35:52;;;;;;;3.63;3.43;;;7.70;97.30;;;;;;4879199;29;20434;-85
2023/11/21 07:38:18;;;;;;;3.57;3.03;;;7.70;97.30;;;;;;4885354;29;20194;-87
2023/11/21 07:40:43;;;;;;;4.83;2.73;;;7.70;97.30;;;;;;4889276;29;20213;-86
2023/11/21 07:43:10;;;;;;;4.63;1.43;;;7.70;97.30;;;;;;4891468;29;20327;-85
2023/11/21 07:45:36;;;;;;;3.33;3.13;;;7.70;97.30;;;;;;4888748;29;20333;-84
2023/11/21 07:48:03;;;;;;;6.30;3.93;;;7.70;97.30;;;;;;4887848;29;20926;-85
2023/11/21 07:50:29;;;;;;;1.53;1.30;;;7.70;97.30;;;;;;4888025;29;20192;-87
2023/11/21 07:52:55;;;;;;;4.00;3.80;;;7.70;97.30;;;;;;4876856;29;20544;-85
2023/11/21 07:55:20;;;;;;;2.53;2.37;;;7.70;97.30;;;;;;4877702;29;20189;-85
2023/11/21 07:57:46;;;;;;;4.50;3.03;;;7.70;97.30;;;;;;4877555;29;20960;-86
2023/11/21 08:00:12;;;;;;;2.10;1.73;;;7.60;97.30;;;;;;4877309;29;20332;-85
2023/11/21 08:02:39;;;;;;;1.33;1.23;;;7.50;97.30;;;;;;4892444;29;20265;-85
2023/11/21 08:05:07;;;;;;;1.60;1.50;;;7.50;97.30;;;;;;4877479;29;20430;-84
2023/11/21 08:07:33;;;;;;;1.80;1.70;;;7.50;97.30;;;;;;4877508;29;20442;-86
2023/11/21 08:09:58;;;;;;;1.27;1.17;;;7.50;97.30;;;;;;4873426;29;20441;-86
2023/11/21 08:12:24;;;;;;;1.87;1.77;;;7.40;97.30;;;;;;4876812;29;20446;-85
2023/11/21 08:14:50;;;;;;;1.50;1.40;;;7.40;97.30;;;;;;4877182;29;20185;-86
2023/11/21 08:17:15;;;;;;;2.53;2.37;;;7.30;97.30;;;;;;4877067;29;20196;-88
2023/11/21 08:19:41;;;;;;;1.53;1.43;;;7.30;97.30;;;;;;4876831;29;20370;-86
2023/11/21 08:22:07;;;;;;;2.90;2.70;;;7.30;97.30;;;;;;4876662;29;20697;-87
2023/11/21 08:24:33;;;;;;;1.20;1.10;;;7.30;97.30;;;;;;4882260;29;20185;-88
2023/11/21 08:26:59;;;;;;;1.47;1.17;;;7.30;97.30;;;;;;4876853;29;20505;-86
2023/11/21 08:29:24;;;;;;;2.17;2.00;;;7.30;97.30;;;;;;4877046;29;20225;-87
2023/11/21 08:31:50;;;;;;;1.33;1.23;;;7.30;97.30;;;;;;4891693;29;20217;-86
2023/11/21 08:34:15;;;;;;;3.00;2.03;;;7.40;97.30;;;;;;4877719;29;20201;-87
2023/11/21 08:36:42;;;;;;;2.07;1.93;;;7.40;97.30;;;;;;4876617;29;20220;-87
2023/11/21 08:39:09;;;;;;;8.13;2.07;;;7.30;97.30;;;;;;4876959;29;20213;-86
2023/11/21 08:41:36;;;;;;;5.83;3.33;;;7.30;97.30;;;;;;4876334;29;20486;-88
2023/11/21 08:44:06;;;;;;;1.60;1.50;;;7.20;97.30;;;;;;4876638;29;20426;-87
2023/11/21 08:46:33;;;;;;;1.90;1.83;;;7.20;97.30;;;;;;4891984;29;20419;-87
2023/11/21 08:49:00;;;;;;;2.80;1.80;;;7.30;97.30;;;;;;4877833;29;20426;-87
2023/11/21 08:51:26;;;;;;;3.30;1.80;;;7.30;97.30;;;;;;4876380;29;21020;-87
2023/11/21 08:53:52;;;;;;;1.97;1.83;;;7.20;97.30;;;;;;4878059;29;20458;-88
2023/11/21 08:56:19;;;;;;;2.73;1.73;;;7.20;97.30;;;;;;4877588;29;20186;-88
2023/11/21 08:58:46;;;;;;;4.00;2.43;;;7.20;97.30;;;;;;4877385;29;20493;-86
2023/11/21 09:01:12;;;;;;;2.67;2.17;;;7.20;97.30;;;;;;4891554;29;20722;-87
2023/11/21 09:03:38;;;;;;;1.43;1.33;;;7.20;97.30;;;;;;4877727;29;20514;-88
2023/11/21 09:06:04;;;;;;;1.13;1.03;;;7.20;97.30;;;;;;4877696;29;20186;-87
2023/11/21 09:08:30;;;;;;;2.07;1.90;;;7.20;97.30;;;;;;4877803;29;20208;-87
2023/11/21 09:10:55;;;;;;;1.60;1.57;;;7.30;97.30;;;;;;4877174;29;20789;-88
2023/11/21 09:13:21;;;;;;;1.70;1.60;;;7.30;97.30;;;;;;4876016;29;20280;-87
2023/11/21 09:15:46;;;;;;;2.17;2.03;;;7.20;97.30;;;;;;4876193;29;20196;-86
2023/11/21 09:18:13;;;;;;;2.50;2.30;;;7.20;97.30;;;;;;4876137;29;20270;-88
2023/11/21 09:20:39;;;;;;;2.60;2.40;;;7.20;97.30;;;;;;4875773;29;20664;-87
2023/11/21 09:23:05;;;;;;;2.30;2.07;;;7.20;97.30;;;;;;4876244;29;20433;-90
2023/11/21 09:25:30;;;;;;;1.40;1.30;;;7.20;97.30;;;;;;4876033;29;20582;-88
2023/11/21 09:27:57;;;;;;;4.20;2.67;;;7.20;97.30;;;;;;4875989;29;20185;-88
2023/11/21 09:30:24;;;;;;;2.20;1.53;;;7.20;97.30;;;;;;4875672;29;20209;-86
2023/11/21 09:32:50;;;;;;;1.60;1.50;;;7.20;97.30;;;;;;4876975;29;20454;-87
2023/11/21 09:35:17;;;;;;;1.83;1.73;;;7.10;97.30;;;;;;4876223;29;20466;-87
2023/11/21 09:37:45;;;;;;;2.50;2.10;;;7.10;97.30;;;;;;4880278;29;20437;-87
2023/11/21 09:40:17;;;;;;;1.50;1.40;;;7.00;97.30;;;;;;4880189;29;20564;-87
2023/11/21 09:42:55;;;;;;;3.13;2.93;;;7.00;97.30;;;;;;4880236;29;20454;-87
2023/11/21 09:45:28;;;;;;;1.37;1.33;;;7.00;97.30;;;;;;4880238;29;20427;-87
2023/11/21 09:47:55;;;;;;;2.93;2.03;;;7.10;97.30;;;;;;4881875;29;20549;-85
2023/11/21 09:50:21;;;;;;;6.10;2.03;;;7.10;97.30;;;;;;4879223;29;20434;-86
2023/11/21 09:53:02;;;;;;;1.10;1.00;;;7.00;97.30;;;;;;4880536;29;20933;-87
2023/11/21 09:55:35;;;;;;;1.40;1.30;;;7.00;97.30;;;;;;4894529;29;20430;-88
2023/11/21 09:58:03;;;;;;;8.43;1.83;;;7.00;97.30;;;;;;4874466;29;20798;-88
2023/11/21 10:00:31;;;;;;;1.83;1.73;;;7.00;97.30;;;;;;4879594;29;20545;-86
2023/11/21 10:02:58;;;;;;;2.40;1.50;;;7.00;97.30;;;;;;4899293;29;20431;-88
2023/11/21 10:05:24;;;;;;;3.37;2.03;;;7.10;97.30;;;;;;4881964;29;20433;-87
2023/11/21 10:07:50;;;;;;;2.50;1.53;;;7.00;97.30;;;;;;4882141;29;20425;-87
2023/11/21 10:10:19;;;;;;;1.10;1.00;;;7.00;97.30;;;;;;4898683;29;20213;-89
2023/11/21 10:12:53;;;;;;;1.50;1.40;;;6.90;97.30;;;;;;4882105;29;20433;-87
2023/11/21 10:15:22;;;;;;;1.43;1.33;;;6.90;97.30;;;;;;4880884;29;20451;-88
2023/11/21 10:17:49;;;;;;;6.57;2.37;;;6.90;97.30;;;;;;4897078;29;21003;-88
2023/11/21 10:20:16;;;;;;;1.97;1.87;;;6.90;97.30;;;;;;4898378;29;20823;-87
2023/11/21 10:22:42;;;;;;;2.37;2.17;;;6.80;97.30;;;;;;4887152;29;20446;-88
2023/11/21 10:25:10;;;;;;;1.57;1.47;;;6.90;97.30;;;;;;4898666;29;20578;-87
2023/11/21 10:27:39;;;;;;;1.67;1.57;;;6.90;97.30;;;;;;4881407;29;20422;-88
2023/11/21 10:30:05;;;;;;;2.47;2.27;;;6.90;97.30;;;;;;4898355;29;20432;-88
2023/11/21 10:32:33;;;;;;;4.20;2.77;;;6.80;97.30;;;;;;4881240;29;20496;-88
2023/11/21 10:35:06;;;;;;;1.47;1.37;;;6.80;97.30;;;;;;4888014;29;20535;-88
2023/11/21 10:37:32;;;;;;;1.40;1.30;;;6.80;97.30;;;;;;4881181;29;20856;-87
2023/11/21 10:40:01;;;;;;;1.73;1.63;;;6.90;97.30;;;;;;4890967;29;20488;-86
2023/11/21 10:42:27;;;;;;;2.30;1.53;;;6.90;97.30;;;;;;4887602;29;20461;-89
2023/11/21 10:44:53;;;;;;;1.63;1.57;;;6.90;97.30;;;;;;4881952;29;20438;-88
2023/11/21 10:47:19;;;;;;;1.20;1.10;;;6.80;97.30;;;;;;4892381;29;20204;-88
2023/11/21 10:49:48;;;;;;;1.63;1.53;;;6.90;97.30;;;;;;4897763;29;20516;-89
2023/11/21 10:52:17;;;;;;;3.40;2.00;;;6.90;97.30;;;;;;4897754;29;20501;-87
2023/11/21 10:54:43;;;;;;;12.87;5.23;;;6.90;97.30;;;;;;4882779;29;20426;-86
2023/11/21 10:57:10;;;;;;;3.27;2.57;;;6.80;97.30;;;;;;4881019;29;20433;-88
2023/11/21 10:59:36;;;;;;;2.27;2.10;;;6.80;97.30;;;;;;4880755;29;20497;-87
2023/11/21 11:02:21;;;;;;;2.57;1.63;;;6.80;97.30;;;;;;4880928;29;20497;-90
2023/11/21 11:04:48;;;;;;;9.93;3.43;;;6.70;97.30;;;;;;4887856;29;20430;-88
2023/11/21 11:07:16;;;;;;;2.07;1.80;;;6.70;97.30;;;;;;4897503;29;20422;-88
2023/11/21 11:09:41;;;;;;;2.07;1.93;;;6.70;97.30;;;;;;4882030;29;20436;-87
2023/11/21 11:12:09;;;;;;;5.10;4.70;;;6.70;97.30;;;;;;4897476;29;20449;-87
2023/11/21 11:14:36;;;;;;;7.93;2.60;;;6.60;97.30;;;;;;4897138;29;20181;-87
2023/11/21 11:17:03;;;;;;;10.63;3.63;;;6.60;97.30;;;;;;4897389;29;20429;-86
2023/11/21 11:19:29;;;;;;;7.23;1.90;;;6.60;97.30;;;;;;4887583;29;20477;-88
2023/11/21 11:22:14;;;;;;;4.73;3.43;;;6.60;97.30;;;;;;4894651;29;20456;-89
2023/11/21 11:25:13;;;;;;;4.57;3.43;;;6.50;97.30;;;;;;4886617;29;20185;-87
2023/11/21 11:28:03;;;;;;;6.73;2.60;;;6.50;97.30;;;;;;4880498;29;20425;-89
2023/11/21 11:30:43;;;;;;;3.97;2.00;;;6.50;97.30;;;;;;4897267;29;20425;-87
2023/11/21 11:33:38;;;;;;;2.03;1.50;;;6.50;97.30;;;;;;4897135;29;20440;-88
2023/11/21 11:36:34;;;;;;;3.37;2.80;;;6.50;97.30;;;;;;4892857;29;20429;-87
2023/11/21 11:39:01;;;;;;;1.60;1.50;;;6.50;97.30;;;;;;4876718;29;20830;-87
2023/11/21 11:41:32;;;;;;;1.90;1.70;;;6.50;97.30;;;;;;4882505;29;20449;-86
2023/11/21 11:43:58;;;;;;;2.97;2.30;;;6.40;97.30;;;;;;4896338;29;20451;-87
2023/11/21 11:46:47;;;;;;;2.13;1.33;;;6.40;97.30;;;;;;4880631;29;20516;-88
2023/11/21 11:49:27;;;;;;;2.13;1.97;;;6.30;97.30;;;;;;4882279;29;20809;-87
2023/11/21 11:52:31;;;;;;;1.53;1.43;;;6.30;97.30;;;;;;4879993;29;20920;-88
2023/11/21 11:54:56;;;;;;;2.87;2.50;;;6.30;97.30;;;;;;4896209;29;20425;-88
2023/11/21 11:57:28;;;;;;;4.20;1.40;;;6.20;97.30;;;;;;4880507;29;20428;-88
2023/11/21 12:00:18;;;;;;;4.10;1.53;;;6.20;97.30;;;;;;4901886;29;20596;-88
2023/11/21 12:02:45;;;;;;;8.33;3.50;;;6.20;97.30;;;;;;4884893;29;20503;-89
2023/11/21 12:05:13;;;;;;;7.70;4.53;;;6.20;97.30;;;;;;4902190;29;20449;-88
2023/11/21 12:08:00;;;;;;;1.73;1.63;;;6.20;97.30;;;;;;4896570;29;20417;-87
2023/11/21 12:10:28;;;;;;;3.27;2.33;;;6.10;97.30;;;;;;4896515;29;20416;-87
2023/11/21 12:13:09;;;;;;;1.37;1.27;;;6.00;97.30;;;;;;4887265;29;20493;-87
2023/11/21 12:15:36;;;;;;;1.77;1.67;;;5.90;97.30;;;;;;4896397;29;20428;-85
2023/11/21 12:18:03;;;;;;;2.67;2.33;;;5.80;97.30;;;;;;4896361;29;20421;-87
2023/11/21 12:20:30;;;;;;;1.63;1.60;;;5.80;97.30;;;;;;4879486;29;20469;-86
2023/11/21 12:23:00;;;;;;;1.10;1.00;;;5.80;97.30;;;;;;4887248;29;20432;-88
2023/11/21 12:25:28;;;;;;;2.80;2.60;;;5.70;97.30;;;;;;4883550;29;20520;-88
2023/11/21 12:27:55;;;;;;;2.70;2.50;;;5.60;97.30;;;;;;4887006;29;20429;-87
2023/11/21 12:30:23;;;;;;;3.37;3.17;;;5.60;97.30;;;;;;4896199;29;20629;-87
2023/11/21 12:32:53;;;;;;;3.03;2.83;;;5.50;97.30;;;;;;4897420;29;20799;-87
2023/11/21 12:35:21;;;;;;;3.47;2.87;;;5.40;97.30;;;;;;4897386;29;20493;-87
2023/11/21 12:37:47;;;;;;;2.50;1.80;;;5.40;97.30;;;;;;4894116;29;20437;-85
2023/11/21 12:40:17;;;;;;;2.43;2.23;;;5.30;97.30;;;;;;4880029;29;20528;-87
2023/11/21 12:42:45;;;;;;;3.40;3.20;;;5.30;97.30;;;;;;4880418;29;20450;-86
2023/11/21 12:45:17;;;;;;;4.97;2.80;;;5.20;97.30;;;;;;4896816;29;20425;-87
2023/11/21 12:47:50;;;;;;;2.17;2.03;;;5.20;97.30;;;;;;4886057;29;20524;-87
2023/11/21 12:50:21;;;;;;;2.00;1.90;;;5.10;97.30;;;;;;4882635;29;21041;-85
2023/11/21 12:52:47;;;;;;;6.10;3.43;;;5.20;97.30;;;;;;4888080;29;20981;-86
2023/11/21 12:55:18;;;;;;;1.43;1.33;;;5.20;97.30;;;;;;4887992;29;20429;-86
2023/11/21 12:57:51;;;;;;;3.83;1.90;;;5.20;97.30;;;;;;4897002;29;20721;-86
2023/11/21 13:00:27;;;;;;;2.03;1.90;;;5.20;97.30;;;;;;4888792;29;20472;-87
2023/11/21 13:02:59;;;;;;;8.23;3.43;;;5.20;97.30;;;;;;4878514;29;20445;-88
2023/11/21 13:05:32;;;;;;;4.63;3.40;;;5.20;97.30;;;;;;4896067;29;20433;-88
2023/11/21 13:07:59;;;;;;;4.03;3.00;;;5.30;97.30;;;;;;4895288;29;20492;-87
2023/11/21 13:10:30;;;;;;;1.73;1.63;;;5.30;97.30;;;;;;4896715;29;20421;-88
2023/11/21 13:12:57;;;;;;;3.87;3.17;;;5.30;97.30;;;;;;4890913;29;20473;-87
2023/11/21 13:15:24;;;;;;;3.87;2.70;;;5.30;97.30;;;;;;4883296;29;20448;-86
2023/11/21 13:17:51;;;;;;;1.50;1.40;;;5.30;97.30;;;;;;4900480;29;20762;-87
2023/11/21 13:20:17;;;;;;;6.87;2.40;;;5.30;97.30;;;;;;4900107;29;20732;-86
2023/11/21 13:22:57;;;;;;;1.60;1.50;;;5.30;97.30;;;;;;4900004;29;20944;-86
2023/11/21 13:25:31;;;;;;;8.20;2.70;;;5.30;97.30;;;;;;4890328;29;20434;-87
2023/11/21 13:27:57;;;;;;;6.30;3.30;;;5.40;97.30;;;;;;4899743;29;20421;-87
2023/11/21 13:30:27;;;;;;;5.67;2.20;;;5.40;97.30;;;;;;4882947;29;20569;-86
2023/11/21 13:33:01;;;;;;;6.63;2.20;;;5.40;97.30;;;;;;4899522;29;20436;-88
2023/11/21 13:35:35;;;;;;;2.60;1.70;;;5.40;97.30;;;;;;4900057;29;20424;-86
2023/11/21 13:38:08;;;;;;;2.67;2.47;;;5.40;97.30;;;;;;4896664;29;21023;-88
2023/11/21 13:40:39;;;;;;;3.10;1.80;;;5.40;97.30;;;;;;4882344;29;20995;-88
2023/11/21 13:43:09;;;;;;;4.53;2.80;;;5.40;97.30;;;;;;4876002;29;20417;-88
2023/11/21 13:45:36;;;;;;;6.90;2.70;;;5.40;97.30;;;;;;4899169;29;20421;-88
2023/11/21 13:48:02;;;;;;;4.83;2.23;;;5.40;97.30;;;;;;4882540;29;20425;-88
2023/11/21 13:50:35;;;;;;;2.10;1.97;;;5.30;97.30;;;;;;4885884;29;20428;-87
2023/11/21 13:53:08;;;;;;;2.30;2.10;;;5.30;97.30;;;;;;4882388;29;20306;-87
2023/11/21 13:55:35;;;;;;;1.33;1.23;;;5.30;97.30;;;;;;4883055;29;20790;-88
2023/11/21 13:58:02;;;;;;;2.50;1.60;;;5.30;97.30;;;;;;4899111;29;20489;-87
2023/11/21 14:00:47;;;;;;;3.37;2.50;;;5.30;97.30;;;;;;4898426;29;20469;-88
2023/11/21 14:03:21;;;;;;;1.30;1.20;;;5.30;97.30;;;;;;4888599;29;20444;-88
2023/11/21 14:05:51;;;;;;;1.50;1.40;;;5.30;97.30;;;;;;4898547;29;20799;-87
2023/11/21 14:08:20;;;;;;;2.93;2.77;;;5.30;97.30;;;;;;4884110;29;20430;-86
2023/11/21 14:10:50;;;;;;;2.50;2.30;;;5.40;97.30;;;;;;4896412;29;20477;-88
2023/11/21 14:13:19;;;;;;;1.77;1.67;;;5.40;97.30;;;;;;4887166;29;20437;-88
2023/11/21 14:15:46;;;;;;;3.40;2.53;;;5.40;97.30;;;;;;4901929;29;20422;-88
2023/11/21 14:18:16;;;;;;;3.63;2.90;;;5.40;97.30;;;;;;4896188;29;20429;-88
2023/11/21 14:20:42;;;;;;;1.93;1.83;;;5.40;97.30;;;;;;4882193;29;20532;-87
2023/11/21 14:23:08;;;;;;;4.20;2.37;;;5.40;97.30;;;;;;4898007;29;20433;-88
2023/11/21 14:25:34;;;;;;;1.33;1.23;;;5.40;97.30;;;;;;4898501;29;20414;-87
2023/11/21 14:28:00;;;;;;;1.63;1.53;;;5.30;97.30;;;;;;4883256;29;20196;-88
2023/11/21 14:30:27;;;;;;;1.10;1.00;;;5.30;97.30;;;;;;4898301;29;20610;-87
2023/11/21 14:32:52;;;;;;;1.20;1.10;;;5.20;97.30;;;;;;4883662;29;20517;-87
2023/11/21 14:35:19;;;;;;;1.83;1.70;;;5.20;97.30;;;;;;4882787;29;20986;-86
2023/11/21 14:37:46;;;;;;;1.83;1.73;;;5.20;97.30;;;;;;4897956;29;20252;-89
2023/11/21 14:40:15;;;;;;;1.90;1.80;;;5.10;97.30;;;;;;4898054;29;20471;-86
2023/11/21 14:42:47;;;;;;;1.33;1.23;;;5.10;97.30;;;;;;4903252;29;20458;-88
2023/11/21 14:45:12;;;;;;;1.30;1.20;;;5.10;97.30;;;;;;4892103;29;20508;-86
2023/11/21 14:47:43;;;;;;;2.90;2.80;;;5.10;97.30;;;;;;4883837;29;20751;-88
2023/11/21 14:50:42;;;;;;;1.73;1.40;;;5.10;97.30;;;;;;4897947;29;20430;-88
2023/11/21 14:52:59;;;;;;;1.63;1.53;;;5.10;97.30;;;;;;4897634;29;20498;-88
2023/11/21 14:55:56;;;;;;;1.37;1.27;;;5.10;97.30;;;;;;4889707;29;20464;-88
2023/11/21 14:58:17;;;;;;;2.13;1.97;;;5.10;97.30;;;;;;4897443;29;20493;-88
2023/11/21 15:00:45;;;;;;;1.47;1.37;;;5.10;97.30;;;;;;4880631;29;20497;-88
2023/11/21 15:03:37;;;;;;;1.60;1.50;;;5.10;97.30;;;;;;4897654;29;20428;-88
2023/11/21 15:06:26;;;;;;;1.37;1.27;;;5.10;97.30;;;;;;4896498;29;20443;-88
2023/11/21 15:11:32;;;;;;;1.40;1.30;;;5.10;97.30;;;;;;4897112;29;20524;-87
2023/11/21 15:13:58;;;;;;;1.57;1.47;;;5.10;97.30;;;;;;4897326;29;20940;-88
2023/11/21 15:16:25;;;;;;;2.30;1.43;;;5.10;97.30;;;;;;4881268;29;20188;-88
2023/11/21 15:18:53;;;;;;;1.60;1.50;;;5.10;97.30;;;;;;4888530;29;20430;-88
2023/11/21 15:21:18;;;;;;;1.30;1.20;;;5.10;97.30;;;;;;4897207;29;20836;-87
2023/11/21 15:23:44;;;;;;;1.10;1.00;;;5.10;97.30;;;;;;4886563;29;20430;-86
2023/11/21 15:26:10;;;;;;;1.43;1.40;;;5.00;97.30;;;;;;4897589;29;20846;-88
2023/11/21 15:28:36;;;;;;;1.30;1.20;;;5.00;97.30;;;;;;4880391;29;20529;-87
2023/11/21 15:31:02;;;;;;;4.17;3.93;;;5.00;97.30;;;;;;4883214;29;20255;-87
2023/11/21 15:33:28;;;;;;;1.20;1.10;;;4.90;97.30;;;;;;4896088;29;20360;-88
2023/11/21 15:35:54;;;;;;;1.47;1.37;;;4.90;97.30;;;;;;4886913;29;20520;-87
2023/11/21 15:38:20;;;;;;;1.20;1.10;;;4.90;97.30;;;;;;4896963;29;20193;-88
2023/11/21 15:40:47;;;;;;;1.73;1.63;;;4.90;97.30;;;;;;4896542;29;20840;-88
2023/11/21 15:43:12;;;;;;;1.70;1.60;;;4.80;97.30;;;;;;4881711;29;20458;-87
2023/11/21 15:45:39;;;;;;;1.30;1.20;;;4.80;97.30;;;;;;4880211;29;20983;-87
2023/11/21 15:48:05;;;;;;;1.10;1.00;;;4.80;97.30;;;;;;4895871;29;20667;-88
2023/11/21 15:50:34;;;;;;;1.40;1.30;;;4.80;97.30;;;;;;4881616;29;20476;-87
2023/11/21 15:53:01;;;;;;;1.40;1.30;;;4.80;97.30;;;;;;4893894;29;20440;-87
2023/11/21 15:55:26;;;;;;;1.70;1.60;;;4.80;97.30;;;;;;4880266;29;20726;-87
2023/11/21 15:57:52;;;;;;;1.10;1.00;;;4.80;97.30;;;;;;4886986;29;20603;-87
2023/11/21 16:00:19;;;;;;;1.20;1.10;;;4.80;97.30;;;;;;4883713;29;20208;-87
2023/11/21 16:02:46;;;;;;;1.20;1.10;;;4.80;97.30;;;;;;4895264;29;20239;-88
2023/11/21 16:05:14;;;;;;;1.10;1.00;;;4.80;97.30;;;;;;4896329;29;20424;-89
2023/11/21 16:07:40;;;;;;;7.70;1.90;;;4.80;97.30;;;;;;4896294;29;20436;-87
2023/11/21 16:10:10;;;;;;;1.43;1.33;;;4.80;97.30;;;;;;4896577;29;20452;-87
2023/11/21 16:12:36;;;;;;;2.60;1.40;;;4.80;97.30;;;;;;4890915;29;20452;-87
2023/11/21 16:15:08;;;;;;;1.10;1.00;;;4.80;97.30;;;;;;4896355;29;20429;-87
2023/11/21 16:17:35;;;;;;;1.67;1.30;;;4.80;97.30;;;;;;4888246;29;20440;-88
2023/11/21 16:20:06;;;;;;;1.13;1.03;;;4.80;97.30;;;;;;4877765;29;20469;-87
2023/11/21 16:22:33;;;;;;;2.27;2.07;;;4.80;97.30;;;;;;4885418;29;20535;-87
2023/11/21 16:25:04;;;;;;;1.93;1.50;;;4.80;97.30;;;;;;4864386;29;20994;-87
2023/11/21 16:27:30;;;;;;;1.20;1.10;;;4.80;97.30;;;;;;4881252;29;20538;-88
2023/11/21 16:29:57;;;;;;;1.47;1.37;;;4.70;97.30;;;;;;4884859;29;20933;-88
2023/11/21 16:32:23;;;;;;;2.30;1.93;;;4.70;97.30;;;;;;4883779;29;20267;-87
2023/11/21 16:34:49;;;;;;;5.03;2.90;;;4.70;97.30;;;;;;4884477;29;20521;-89
2023/11/21 16:37:14;;;;;;;1.20;1.10;;;4.70;97.30;;;;;;4879148;29;20276;-87
2023/11/21 16:39:41;;;;;;;8.20;2.23;;;4.70;97.30;;;;;;4879020;29;20213;-88
2023/11/21 16:42:07;;;;;;;1.20;1.10;;;4.70;97.30;;;;;;4879766;29;20216;-87
2023/11/21 16:44:32;;;;;;;1.30;1.20;;;4.70;97.30;;;;;;4881105;29;20707;-88
2023/11/21 16:47:04;;;;;;;2.43;1.87;;;4.70;97.30;;;;;;4881051;29;20261;-88
2023/11/21 16:49:31;;;;;;;1.00;0.90;;;4.60;97.30;;;;;;4883480;29;20184;-86
2023/11/21 16:51:57;;;;;;;1.27;1.20;;;4.70;97.30;;;;;;4878619;29;20472;-88
2023/11/21 16:54:23;;;;;;;2.40;2.20;;;4.60;97.30;;;;;;4881816;29;20444;-87
2023/11/21 16:56:49;;;;;;;1.20;1.10;;;4.60;97.30;;;;;;4879321;29;20321;-88
2023/11/21 16:59:15;;;;;;;3.37;3.10;;;4.60;97.30;;;;;;4883533;29;20552;-88
2023/11/21 17:01:41;;;;;;;1.93;1.87;;;4.60;97.30;;;;;;4879344;29;20268;-88
2023/11/21 17:04:09;;;;;;;3.60;3.23;;;4.60;97.30;;;;;;4895336;29;20472;-88
2023/11/21 17:06:34;;;;;;;1.23;1.13;;;4.60;97.30;;;;;;4878437;29;20489;-87
2023/11/21 17:09:03;;;;;;;2.00;1.90;;;4.60;97.30;;;;;;4889076;29;20425;-88
2023/11/21 17:11:29;;;;;;;1.27;1.17;;;4.60;97.30;;;;;;4884798;29;20224;-88
2023/11/21 17:13:55;;;;;;;2.30;1.30;;;4.60;97.30;;;;;;4878452;29;20436;-89
2023/11/21 17:16:21;;;;;;;1.20;1.10;;;4.50;97.30;;;;;;4883559;29;20185;-88
2023/11/21 17:18:47;;;;;;;1.20;1.10;;;4.60;97.30;;;;;;4889609;29;21027;-88
2023/11/21 17:21:12;;;;;;;2.07;1.30;;;4.60;97.30;;;;;;4895171;29;20208;-87
2023/11/21 17:23:38;;;;;;;1.70;1.60;;;4.60;97.30;;;;;;4895133;29;20706;-87
2023/11/21 17:26:04;;;;;;;1.30;1.20;;;4.60;97.30;;;;;;4895085;29;20272;-87
2023/11/21 17:28:30;;;;;;;1.20;1.10;;;4.60;97.30;;;;;;4894873;29;20556;-87
2023/11/21 17:30:55;;;;;;;3.10;2.90;;;4.60;97.30;;;;;;4894914;29;20532;-89
2023/11/21 17:33:21;;;;;;;2.23;2.03;;;4.60;97.30;;;;;;4895155;29;20189;-87
2023/11/21 17:35:47;;;;;;;1.73;1.37;;;4.60;97.30;;;;;;4880818;29;20741;-88
2023/11/21 17:38:12;;;;;;;2.10;1.67;;;4.60;97.30;;;;;;4878125;29;20563;-87
2023/11/21 17:40:39;;;;;;;2.13;2.00;;;4.60;97.30;;;;;;4894984;29;20691;-87
2023/11/21 17:43:04;;;;;;;1.47;1.37;;;4.50;97.30;;;;;;4880744;29;20228;-88
2023/11/21 17:45:30;;;;;;;2.63;1.87;;;4.50;97.30;;;;;;4878268;29;20998;-88
2023/11/21 17:47:56;;;;;;;1.13;1.03;;;4.50;97.30;;;;;;4894953;29;20170;-88
2023/11/21 17:50:22;;;;;;;1.43;1.20;;;4.50;97.30;;;;;;4895067;29;20185;-85
2023/11/21 17:52:47;;;;;;;3.70;1.50;;;4.50;97.30;;;;;;4894867;29;20461;-87
2023/11/21 17:55:13;;;;;;;1.20;1.10;;;4.50;97.30;;;;;;4894835;29;20421;-87
2023/11/21 17:57:39;;;;;;;1.47;1.37;;;4.40;97.30;;;;;;4897207;29;20189;-88
2023/11/21 18:00:09;;;;;;;1.47;1.37;;;4.40;97.30;;;;;;4881686;29;20212;-88
2023/11/21 18:02:37;;;;;;;2.77;1.83;;;4.40;97.30;;;;;;4886116;29;20552;-90
2023/11/21 18:05:05;;;;;;;1.93;1.83;;;4.40;97.30;;;;;;4898395;29;20478;-89
2023/11/21 18:07:31;;;;;;;1.57;1.47;;;4.40;97.30;;;;;;4898286;29;20436;-88